Time;durP1;ratioP1;P1;durP2;ratioP2;P2;SDS_P1;SDS_P2;PMS_P1;PMS_P2;Temp;Humidity;BMP_temperature;BMP_pressure;BME280_temperature;BME280_humidity;BME280_pressure;Samples;Min_cycle;Max_cycle;Signal;HPM_P1;HPM_P2
2023/04/30 00:00:27;;;;;;;14.75;10.52;;;;;;;6.24;100.00;102320.72;4993518;28;20117;-83
2023/04/30 00:02:53;;;;;;;16.10;9.77;;;;;;;5.95;100.00;102278.56;4992978;28;20038;-81
2023/04/30 00:05:18;;;;;;;18.50;10.13;;;;;;;6.31;100.00;102347.94;4976034;28;20018;-85
2023/04/30 00:07:43;;;;;;;14.40;9.90;;;;;;;6.24;100.00;102341.25;4993041;28;20030;-85
2023/04/30 00:10:10;;;;;;;15.25;10.38;;;;;;;6.15;100.00;102329.44;4993364;28;20041;-85
2023/04/30 00:12:35;;;;;;;16.20;9.75;;;;;;;6.04;100.00;102316.00;4992970;28;20081;-86
2023/04/30 00:15:00;;;;;;;16.90;11.30;;;;;;;6.16;100.00;102332.84;4993065;28;20043;-81
2023/04/30 00:17:26;;;;;;;15.38;11.00;;;;;;;6.09;100.00;102331.28;4993331;28;20030;-80
2023/04/30 00:19:51;;;;;;;16.30;10.65;;;;;;;5.99;100.00;102321.22;4993247;28;20037;-87
2023/04/30 00:22:17;;;;;;;16.00;11.13;;;;;;;5.96;100.00;102321.28;4993276;28;20379;-79
2023/04/30 00:24:42;;;;;;;17.63;10.65;;;;;;;6.00;100.00;102333.19;4993183;28;20105;-81
2023/04/30 00:27:08;;;;;;;16.27;10.82;;;;;;;5.87;100.00;102325.72;4993096;28;20026;-81
2023/04/30 00:29:33;;;;;;;17.42;11.93;;;;;;;5.93;100.00;102335.88;4992975;28;20057;-83
2023/04/30 00:31:58;;;;;;;15.15;10.48;;;;;;;5.69;100.00;102307.22;4993093;28;20026;-80
2023/04/30 00:34:24;;;;;;;19.63;11.40;;;;;;;5.68;100.00;102312.41;4993055;28;20023;-81
2023/04/30 00:36:49;;;;;;;16.55;10.65;;;;;;;5.82;100.00;102345.47;4992956;28;20015;-81
2023/04/30 00:39:15;;;;;;;18.05;10.82;;;;;;;5.78;100.00;102344.66;4992717;28;20030;-84
2023/04/30 00:41:41;;;;;;;18.85;11.65;;;;;;;5.77;100.00;102342.97;4993189;28;20051;-84
2023/04/30 00:44:07;;;;;;;19.30;12.60;;;;;;;5.45;100.00;102294.88;4992818;28;20522;-84
2023/04/30 00:46:32;;;;;;;19.90;12.57;;;;;;;5.55;100.00;102308.38;4993158;28;20157;-84
2023/04/30 00:49:01;;;;;;;18.95;11.20;;;;;;;5.69;100.00;102335.44;4992743;28;20470;-84
2023/04/30 00:51:28;;;;;;;15.85;11.90;;;;;;;5.44;100.00;102308.56;4992883;28;20031;-81
2023/04/30 00:53:53;;;;;;;16.75;11.65;;;;;;;5.47;100.00;102316.19;4992684;28;20033;-82
2023/04/30 00:56:18;;;;;;;22.38;13.05;;;;;;;5.35;100.00;102301.91;4992693;28;20030;-81
2023/04/30 00:58:44;;;;;;;17.10;11.88;;;;;;;4.90;100.00;102227.56;4992753;28;20029;-82
2023/04/30 01:01:10;;;;;;;18.05;12.35;;;;;;;5.22;100.00;102295.31;4992847;28;20434;-82
2023/04/30 01:03:36;;;;;;;18.08;12.13;;;;;;;5.51;100.00;102335.78;4992641;28;20030;-82
2023/04/30 01:06:02;;;;;;;16.80;11.77;;;;;;;5.47;100.00;102339.25;4992691;28;20030;-82
2023/04/30 01:08:29;;;;;;;16.65;11.43;;;;;;;5.40;100.00;102335.09;4992601;28;20026;-84
2023/04/30 01:11:16;;;;;;;18.98;11.40;;;;;;;5.29;100.00;102321.63;4975623;28;20030;-82
2023/04/30 01:13:54;;;;;;;18.27;11.68;;;;;;;5.00;100.00;102286.28;4993273;28;20132;-82
2023/04/30 01:16:32;;;;;;;17.10;11.35;;;;;;;5.26;100.00;102331.94;4996232;28;20105;-81
2023/04/30 01:19:04;;;;;;;17.23;12.20;;;;;;;4.93;100.00;102290.66;4996213;28;20034;-80
2023/04/30 01:21:32;;;;;;;18.35;12.90;;;;;;;4.80;100.00;102272.09;4978693;28;20038;-84
2023/04/30 01:24:22;;;;;;;18.95;12.50;;;;;;;5.16;100.00;102334.66;4996174;28;20030;-84
2023/04/30 01:26:50;;;;;;;16.20;11.93;;;;;;;5.09;100.00;102330.50;4994892;28;20058;-82
2023/04/30 01:29:17;;;;;;;17.23;12.40;;;;;;;5.06;100.00;102329.72;4995680;28;20019;-82
2023/04/30 01:31:43;;;;;;;16.85;11.50;;;;;;;5.01;100.00;102337.44;4995838;28;20049;-83
2023/04/30 01:34:09;;;;;;;17.00;12.45;;;;;;;4.71;100.00;102287.56;4996013;28;20023;-83
2023/04/30 01:36:34;;;;;;;17.83;12.38;;;;;;;5.03;100.00;102345.13;4996220;28;20046;-86
2023/04/30 01:41:40;;;;;;;16.15;12.13;;;;;;;5.10;100.00;102351.81;4975047;28;20047;-83
2023/04/30 01:44:34;;;;;;;18.60;12.32;;;;;;;5.07;100.00;102352.72;4976368;28;20023;-85
2023/04/30 01:47:27;;;;;;;19.33;12.30;;;;;;;4.76;100.00;102290.09;4976316;28;20035;-85
2023/04/30 01:50:33;;;;;;;16.30;11.25;;;;;;;4.99;100.00;102341.75;4976252;28;20035;-81
2023/04/30 01:53:00;;;;;;;15.18;11.30;;;;;;;4.80;100.00;102324.97;4976749;28;20023;-82
2023/04/30 01:55:29;;;;;;;16.77;11.60;;;;;;;4.85;100.00;102344.53;4976286;28;20390;-82
2023/04/30 01:57:59;;;;;;;17.48;12.55;;;;;;;4.89;100.00;102351.28;4976384;28;20035;-84
2023/04/30 02:00:41;;;;;;;18.17;12.40;;;;;;;4.55;100.00;102291.25;4976112;28;20038;-79
2023/04/30 02:03:21;;;;;;;19.02;12.52;;;;;;;3.52;100.00;102129.91;4975914;28;20051;-81
2023/04/30 02:05:57;;;;;;;19.73;13.00;;;;;;;3.88;100.00;102183.09;4976019;28;20026;-84
2023/04/30 02:08:23;;;;;;;16.98;12.75;;;;;;;4.25;100.00;102249.91;4975907;28;20023;-82
2023/04/30 02:11:00;;;;;;;20.02;12.25;;;;;;;4.31;100.00;102269.41;4975787;28;20098;-82
2023/04/30 02:13:31;;;;;;;17.08;12.02;;;;;;;4.73;100.00;102351.56;4976066;28;20471;-84
2023/04/30 02:16:03;;;;;;;17.23;12.20;;;;;;;3.89;100.00;102206.94;4975690;28;20103;-82
2023/04/30 02:18:46;;;;;;;17.08;12.10;;;;;;;4.69;100.00;102347.31;4975804;28;20048;-81
2023/04/30 02:21:13;;;;;;;19.63;12.77;;;;;;;3.57;100.00;102169.03;4975641;28;20030;-82
2023/04/30 02:23:44;;;;;;;20.02;12.85;;;;;;;4.61;100.00;102334.63;4975852;28;20030;-81
2023/04/30 02:26:10;;;;;;;19.23;12.65;;;;;;;3.73;100.00;102196.06;4975226;28;20023;-81
2023/04/30 02:28:35;;;;;;;17.17;12.32;;;;;;;4.66;100.00;102340.56;4975447;28;20030;-81
2023/04/30 02:31:03;;;;;;;16.33;11.38;;;;;;;4.66;100.00;102342.25;4975153;28;20023;-81
2023/04/30 02:33:28;;;;;;;19.60;12.77;;;;;;;4.67;100.00;102342.25;4957945;28;20078;-80
2023/04/30 02:35:54;;;;;;;20.40;15.38;;;;;;;3.97;100.00;102221.31;4975671;28;20474;-82
2023/04/30 02:38:19;;;;;;;17.75;13.88;;;;;;;3.94;100.00;102221.34;4975278;28;20529;-81
2023/04/30 02:40:46;;;;;;;22.05;14.05;;;;;;;3.61;100.00;102168.97;4975124;28;20062;-82
2023/04/30 02:43:11;;;;;;;17.58;12.77;;;;;;;4.59;100.00;102328.69;4975171;28;20081;-80
2023/04/30 02:45:37;;;;;;;18.73;12.82;;;;;;;3.41;100.00;102143.66;4975318;28;20102;-80
2023/04/30 02:48:02;;;;;;;18.05;13.30;;;;;;;4.61;100.00;102335.47;4975142;28;20542;-83
2023/04/30 02:50:31;;;;;;;18.02;12.43;;;;;;;4.14;100.00;102273.94;4975065;28;20058;-82
2023/04/30 02:52:56;;;;;;;20.42;13.80;;;;;;;3.67;100.00;102180.81;4975025;28;20058;-82
2023/04/30 02:55:24;;;;;;;18.58;13.02;;;;;;;4.59;100.00;102344.06;4975032;28;20102;-81
2023/04/30 02:57:49;;;;;;;18.42;13.63;;;;;;;4.56;100.00;102336.44;4957892;28;20379;-81
2023/04/30 03:00:16;;;;;;;17.50;12.35;;;;;;;4.50;100.00;102332.22;4974718;28;20073;-82
2023/04/30 03:02:42;;;;;;;19.50;13.43;;;;;;;4.35;100.00;102308.59;4974896;28;20031;-81
2023/04/30 03:05:07;;;;;;;19.45;13.02;;;;;;;4.36;100.00;102321.34;4974831;28;20360;-82
2023/04/30 03:07:33;;;;;;;17.48;12.45;;;;;;;3.99;100.00;102275.78;4974844;28;20029;-82
2023/04/30 03:09:58;;;;;;;19.30;12.98;;;;;;;4.43;100.00;102342.59;4974741;28;20089;-82
2023/04/30 03:12:23;;;;;;;18.95;13.02;;;;;;;4.43;100.00;102337.47;4974783;28;20070;-81
2023/04/30 03:14:49;;;;;;;18.65;12.77;;;;;;;4.11;100.00;102287.56;4974124;28;20063;-81
2023/04/30 03:17:15;;;;;;;18.63;12.85;;;;;;;4.05;100.00;102291.94;4974730;28;20031;-84
2023/04/30 03:19:43;;;;;;;17.73;11.93;;;;;;;4.31;100.00;102344.41;4974508;28;20027;-81
2023/04/30 03:22:10;;;;;;;18.00;13.57;;;;;;;4.26;100.00;102341.09;4974512;28;20541;-82
2023/04/30 03:24:36;;;;;;;15.60;11.95;;;;;;;4.18;100.00;102339.47;4974359;28;20026;-81
2023/04/30 03:27:01;;;;;;;19.42;13.45;;;;;;;4.00;100.00;102318.38;4974484;28;20114;-81
2023/04/30 03:33:05;;;;;;;15.15;11.60;;;;;;;4.14;100.00;102337.84;4974357;28;20919;-78
2023/04/30 03:35:49;;;;;;;16.95;11.70;;;;;;;4.07;100.00;102339.63;4974213;28;20113;-81
2023/04/30 03:45:18;;;;;;;17.13;12.93;;;;;;;3.88;100.00;102312.56;4973963;28;20050;-84
2023/04/30 03:47:43;;;;;;;21.42;14.63;;;;;;;3.82;100.00;102300.69;4974107;28;20030;-80
2023/04/30 03:50:09;;;;;;;19.38;13.00;;;;;;;4.07;100.00;102344.72;4974062;28;20035;-81
2023/04/30 03:52:35;;;;;;;19.35;14.38;;;;;;;3.78;100.00;102290.53;4956529;28;20030;-82
2023/04/30 03:55:01;;;;;;;20.48;14.07;;;;;;;3.67;100.00;102273.63;4974029;28;20023;-81
2023/04/30 03:57:27;;;;;;;18.48;13.80;;;;;;;3.91;100.00;102328.72;4974180;28;20055;-82
2023/04/30 03:59:52;;;;;;;22.17;15.90;;;;;;;3.90;100.00;102310.84;4974084;28;20487;-83
2023/04/30 04:02:18;;;;;;;20.30;14.07;;;;;;;3.27;100.00;102221.28;4974132;28;20493;-82
2023/04/30 04:04:43;;;;;;;19.30;13.68;;;;;;;4.07;100.00;102349.84;4974095;28;20039;-81
2023/04/30 04:07:10;;;;;;;18.13;14.00;;;;;;;4.02;100.00;102357.53;4973857;28;20026;-81
2023/04/30 04:09:35;;;;;;;21.00;15.57;;;;;;;4.07;100.00;102351.56;4973741;28;20026;-81
2023/04/30 04:12:01;;;;;;;18.75;13.57;;;;;;;4.07;100.00;102344.72;4974065;28;20154;-82
2023/04/30 04:14:29;;;;;;;20.23;13.95;;;;;;;4.06;100.00;102347.31;4973996;28;20479;-81
2023/04/30 04:16:56;;;;;;;19.73;14.50;;;;;;;3.97;100.00;102338.03;4973725;28;20023;-81
2023/04/30 04:19:22;;;;;;;19.55;14.38;;;;;;;3.63;100.00;102287.28;4973574;28;20205;-81
2023/04/30 04:21:47;;;;;;;23.33;15.93;;;;;;;4.07;100.00;102360.06;4973607;28;20510;-81
2023/04/30 04:24:13;;;;;;;20.88;15.88;;;;;;;3.71;100.00;102288.03;4973542;28;20030;-81
2023/04/30 04:26:38;;;;;;;22.25;15.95;;;;;;;4.15;100.00;102360.81;4973927;28;20154;-81
2023/04/30 04:29:04;;;;;;;19.67;14.77;;;;;;;4.00;100.00;102337.97;4973634;28;20034;-81
2023/04/30 04:31:30;;;;;;;21.38;14.35;;;;;;;4.11;100.00;102358.31;4973397;28;20073;-81
2023/04/30 04:33:59;;;;;;;23.05;15.30;;;;;;;3.72;100.00;102301.66;4973689;28;20463;-86
2023/04/30 04:36:29;;;;;;;22.27;15.38;;;;;;;3.99;100.00;102326.06;5042132;23;20042;-86
2023/04/30 04:38:56;;;;;;;22.90;15.27;;;;;;;4.19;100.00;102357.34;4992530;28;20100;-82
2023/04/30 04:41:23;;;;;;;23.40;15.95;;;;;;;3.96;100.00;102321.00;4995121;28;20022;-84
2023/04/30 04:43:48;;;;;;;22.23;16.83;;;;;;;4.30;100.00;102364.91;4993708;28;20027;-84
2023/04/30 04:46:15;;;;;;;22.00;15.65;;;;;;;4.24;100.00;102341.97;4991859;28;20030;-80
2023/04/30 04:48:41;;;;;;;22.23;15.70;;;;;;;4.47;100.00;102357.84;4995453;28;20030;-84
2023/04/30 04:51:06;;;;;;;19.85;15.10;;;;;;;4.20;100.00;102314.72;4997012;28;20090;-84
2023/04/30 04:53:31;;;;;;;23.40;17.17;;;;;;;4.56;100.00;102355.19;4996628;28;20027;-85
2023/04/30 04:55:56;;;;;;;24.73;17.33;;;;;;;4.47;100.00;102332.28;4995676;28;20487;-85
2023/04/30 04:58:22;;;;;;;21.98;16.33;;;;;;;4.44;100.00;102319.53;4996097;28;20077;-82
2023/04/30 05:00:47;;;;;;;24.33;18.08;;;;;;;4.80;100.00;102377.00;4996850;28;20035;-82
2023/04/30 05:03:13;;;;;;;22.00;17.20;;;;;;;4.81;100.00;102355.66;4995062;28;20113;-82
2023/04/30 05:05:38;;;;;;;21.00;15.27;;;;;;;4.98;100.00;102372.50;4996490;28;20041;-83
2023/04/30 05:08:04;;;;;;;24.75;16.48;;;;;;;5.09;100.00;102370.63;4995954;28;20097;-84
2023/04/30 05:10:29;;;;;;;22.17;15.43;;;;;;;5.18;100.00;102378.16;4996575;28;20386;-84
2023/04/30 05:12:55;;;;;;;22.40;16.02;;;;;;;5.07;100.00;102339.91;4996523;28;20383;-84
2023/04/30 05:15:20;;;;;;;21.08;15.93;;;;;;;5.35;100.00;102373.63;4996438;28;20036;-80
2023/04/30 05:17:47;;;;;;;24.13;17.08;;;;;;;5.41;100.00;102368.41;4996088;28;20470;-82
2023/04/30 05:20:12;;;;;;;24.88;17.23;;;;;;;5.37;100.00;102342.84;4996363;28;20026;-84
2023/04/30 05:22:38;;;;;;;22.27;17.15;;;;;;;5.59;100.00;102362.09;4996155;28;20363;-82
2023/04/30 05:25:03;;;;;;;23.88;18.08;;;;;;;5.71;100.00;102361.06;4996092;28;20070;-83
2023/04/30 05:27:29;;;;;;;23.65;18.33;;;;;;;5.82;100.00;102351.44;4996230;28;20026;-80
2023/04/30 05:29:57;;;;;;;23.77;17.98;;;;;;;5.55;100.00;102291.28;4994792;28;20030;-80
2023/04/30 05:32:23;;;;;;;25.60;18.08;;;;;;;6.06;100.00;102359.56;4994536;28;20038;-81
2023/04/30 05:34:48;;;;;;;24.52;17.58;;;;;;;6.02;100.00;102339.13;4995900;28;20038;-83
2023/04/30 05:37:15;;;;;;;23.38;17.40;;;;;;;5.91;100.00;102302.59;4995724;28;20042;-83
2023/04/30 05:39:41;;;;;;;23.02;18.77;;;;;;;6.65;100.00;102339.50;4995923;28;20129;-83
2023/04/30 05:42:06;;;;;;;22.88;17.15;;;;;;;7.44;100.00;102358.16;4995727;28;20434;-80
2023/04/30 05:44:31;;;;;;;18.88;15.38;;;;;;;7.97;100.00;102338.75;4995642;28;20029;-87
2023/04/30 05:46:57;;;;;;;19.48;15.27;;;;;;;9.85;100.00;102365.47;4994507;28;20034;-87
2023/04/30 05:49:22;;;;;;;17.65;14.02;;;;;;;11.57;91.00;102366.50;4995569;28;20029;-86
2023/04/30 05:51:47;;;;;;;14.55;11.48;;;;;;;12.70;80.92;102325.16;4995701;28;20328;-86
2023/04/30 05:54:13;;;;;;;14.40;11.48;;;;;;;13.38;74.55;102318.34;4995405;28;20022;-86
2023/04/30 05:56:38;;;;;;;12.23;9.85;;;;;;;14.44;70.17;102359.47;4995644;28;20038;-85
2023/04/30 05:59:03;;;;;;;13.30;9.60;;;;;;;14.61;66.94;102315.22;4994845;28;20021;-85
2023/04/30 06:01:29;;;;;;;13.20;8.90;;;;;;;15.33;63.59;102292.84;4995893;28;20493;-86
2023/04/30 06:03:54;;;;;;;13.15;9.43;;;;;;;16.20;62.68;102331.81;4995351;28;20367;-85
2023/04/30 06:06:19;;;;;;;11.65;8.52;;;;;;;16.58;58.47;102347.63;4995621;28;20509;-86
2023/04/30 06:08:45;;;;;;;12.73;8.45;;;;;;;17.20;57.97;102348.75;4995283;28;20023;-86
2023/04/30 06:11:11;;;;;;;12.18;9.20;;;;;;;17.51;54.24;102356.34;4995181;28;20499;-86
2023/04/30 06:13:38;;;;;;;11.48;8.35;;;;;;;17.76;53.84;102331.03;4995343;28;20019;-86
2023/04/30 06:16:06;;;;;;;11.57;7.95;;;;;;;17.77;52.88;102313.59;4995361;28;20034;-84
2023/04/30 06:18:31;;;;;;;12.80;8.40;;;;;;;18.42;51.26;102330.78;4995238;28;20027;-86
2023/04/30 06:20:56;;;;;;;11.07;7.35;;;;;;;18.67;50.64;102346.38;4995559;28;20026;-86
2023/04/30 06:23:22;;;;;;;11.35;8.25;;;;;;;19.17;49.43;102341.78;4995778;28;20030;-83
2023/04/30 06:25:47;;;;;;;9.65;7.70;;;;;;;19.60;48.76;102342.03;4993046;28;20466;-88
2023/04/30 06:28:12;;;;;;;10.93;8.20;;;;;;;19.71;47.18;102343.81;4995106;28;20038;-86
2023/04/30 06:30:40;;;;;;;11.23;7.72;;;;;;;20.14;46.29;102341.25;4994459;28;20034;-83
2023/04/30 06:33:05;;;;;;;11.00;7.10;;;;;;;20.04;45.33;102321.97;4994771;28;20026;-82
2023/04/30 06:35:30;;;;;;;9.75;6.65;;;;;;;20.05;44.37;102337.56;4994568;28;20033;-83
2023/04/30 06:38:01;;;;;;;10.07;6.85;;;;;;;19.94;44.58;102350.69;4994822;28;20022;-86
2023/04/30 06:40:29;;;;;;;12.57;7.80;;;;;;;20.10;44.93;102350.34;4994474;28;20030;-85
2023/04/30 06:42:54;;;;;;;11.77;7.72;;;;;;;20.37;44.35;102349.94;4994474;28;20026;-88
2023/04/30 06:45:20;;;;;;;9.88;6.78;;;;;;;20.05;42.79;102261.53;4994864;28;20022;-86
2023/04/30 06:47:46;;;;;;;9.82;7.07;;;;;;;20.56;43.29;102338.81;4994296;28;20466;-85
2023/04/30 06:50:11;;;;;;;11.35;6.93;;;;;;;20.58;42.93;102348.22;4993501;28;20030;-84
2023/04/30 06:52:37;;;;;;;10.05;7.00;;;;;;;20.47;43.17;102318.56;4994175;28;20026;-86
2023/04/30 06:55:05;;;;;;;10.73;7.35;;;;;;;21.02;42.76;102359.47;4994268;28;20027;-84
2023/04/30 06:57:31;;;;;;;9.88;6.90;;;;;;;21.18;41.29;102359.88;4994603;28;20177;-85
2023/04/30 06:59:56;;;;;;;9.32;7.05;;;;;;;20.70;42.42;102362.13;4994317;28;20081;-86
2023/04/30 07:02:22;;;;;;;12.18;8.20;;;;;;;20.56;42.85;102352.78;4994260;28;20019;-86
2023/04/30 07:04:48;;;;;;;12.25;8.43;;;;;;;20.72;42.51;102365.47;4994090;28;20026;-86
2023/04/30 07:07:22;;;;;;;11.18;8.30;;;;;;;20.63;43.33;102276.97;5001431;23;20023;-86
2023/04/30 07:10:03;;;;;;;11.55;7.88;;;;;;;20.69;44.08;102299.25;4992673;28;20065;-85
2023/04/30 07:12:32;;;;;;;11.70;8.57;;;;;;;21.15;41.83;102361.94;4993273;28;20544;-86
2023/04/30 07:14:58;;;;;;;12.45;8.70;;;;;;;21.15;42.26;102354.06;4994277;28;20029;-87
2023/04/30 07:17:24;;;;;;;11.75;8.43;;;;;;;20.67;43.40;102353.69;4994022;28;20509;-84
2023/04/30 07:19:49;;;;;;;12.18;8.43;;;;;;;19.37;45.18;102359.47;4993603;28;20026;-82
2023/04/30 07:22:14;;;;;;;11.75;8.55;;;;;;;17.71;48.77;102348.00;4993759;28;20026;-84
2023/04/30 07:24:40;;;;;;;12.63;8.77;;;;;;;16.37;52.76;102315.09;4994408;28;20026;-87
2023/04/30 07:27:06;;;;;;;10.80;8.48;;;;;;;15.67;56.45;102357.63;4994579;28;20091;-84
2023/04/30 07:29:37;;;;;;;11.23;8.90;;;;;;;14.54;58.91;102314.72;4993743;28;20045;-84
2023/04/30 07:32:07;;;;;;;14.05;9.80;;;;;;;14.26;61.53;102350.94;4994034;28;20025;-87
2023/04/30 07:37:42;;;;;;;13.80;9.70;;;;;;;12.69;66.07;102212.03;4992950;28;20037;-87
2023/04/30 07:40:11;;;;;;;13.05;10.43;;;;;;;12.95;67.21;102340.34;4993569;28;20034;-89
2023/04/30 07:42:41;;;;;;;12.65;9.98;;;;;;;11.76;70.38;102193.16;4993778;28;20072;-84
2023/04/30 07:45:12;;;;;;;12.30;9.95;;;;;;;11.80;70.99;102214.56;4993395;28;20026;-86
2023/04/30 07:47:47;;;;;;;15.45;11.73;;;;;;;12.58;71.71;102347.28;4993726;28;20018;-88
2023/04/30 07:50:13;;;;;;;12.68;10.13;;;;;;;11.75;72.35;102214.75;4992019;28;20096;-88
2023/04/30 07:52:39;;;;;;;13.82;10.57;;;;;;;12.38;72.85;102346.53;4993536;28;20027;-87
2023/04/30 07:55:05;;;;;;;14.73;10.82;;;;;;;12.30;74.50;102352.94;4993635;28;20383;-87
2023/04/30 07:57:30;;;;;;;16.33;10.05;;;;;;;12.39;74.78;102348.22;4993598;28;20106;-87
2023/04/30 07:59:56;;;;;;;16.25;10.82;;;;;;;12.49;75.70;102357.28;4993133;28;20035;-85
2023/04/30 08:02:21;;;;;;;15.00;11.80;;;;;;;12.53;75.96;102335.47;4993545;28;20090;-84
2023/04/30 08:04:47;;;;;;;13.55;11.20;;;;;;;12.06;73.89;102259.06;4992973;28;20482;-84
2023/04/30 08:07:31;;;;;;;13.95;11.05;;;;;;;11.90;72.53;102236.56;4993303;28;20033;-81
2023/04/30 08:10:29;;;;;;;15.00;10.90;;;;;;;12.45;73.10;102360.91;4992562;28;20104;-86
2023/04/30 08:12:56;;;;;;;15.30;11.02;;;;;;;12.37;75.53;102360.41;4993072;28;20072;-88
2023/04/30 08:15:21;;;;;;;15.93;10.73;;;;;;;12.29;75.60;102358.16;4993350;28;20018;-87
2023/04/30 08:17:51;;;;;;;16.00;11.68;;;;;;;12.13;75.17;102354.59;4992930;28;20489;-83
2023/04/30 08:20:17;;;;;;;15.55;11.00;;;;;;;12.27;75.49;102354.81;4993115;28;20022;-82
2023/04/30 08:22:43;;;;;;;14.25;10.88;;;;;;;12.52;75.11;102370.06;4992587;28;20129;-82
2023/04/30 08:25:12;;;;;;;15.18;10.98;;;;;;;12.70;76.19;102361.44;4993299;28;20049;-83
2023/04/30 08:27:38;;;;;;;15.07;10.73;;;;;;;12.70;74.67;102347.66;4993028;28;20018;-88
2023/04/30 08:30:05;;;;;;;14.82;10.90;;;;;;;12.97;76.22;102368.78;4993342;28;20037;-80
2023/04/30 08:32:35;;;;;;;16.95;11.98;;;;;;;12.84;73.77;102333.09;4993296;28;20018;-81
2023/04/30 08:35:00;;;;;;;13.55;11.05;;;;;;;12.98;73.08;102367.88;4976075;28;20031;-80
2023/04/30 08:37:25;;;;;;;14.77;11.32;;;;;;;12.90;73.88;102363.91;4993195;28;20034;-80
2023/04/30 08:39:51;;;;;;;18.08;11.70;;;;;;;12.68;74.79;102324.38;4993292;28;20045;-82
2023/04/30 08:42:20;;;;;;;15.32;10.70;;;;;;;13.07;75.14;102362.25;4993021;28;20375;-81
2023/04/30 08:44:46;;;;;;;13.18;10.90;;;;;;;13.16;73.96;102348.81;4993208;28;20026;-82
2023/04/30 08:47:13;;;;;;;12.80;10.63;;;;;;;13.07;73.82;102331.13;4993176;28;20390;-86
2023/04/30 08:49:39;;;;;;;12.35;10.07;;;;;;;13.02;74.00;102331.34;4993055;28;20030;-83
2023/04/30 08:52:04;;;;;;;14.85;10.70;;;;;;;13.18;74.14;102355.63;4993132;28;20034;-83
2023/04/30 08:54:33;;;;;;;14.13;11.25;;;;;;;13.14;74.16;102364.47;4992927;28;20086;-81
2023/04/30 08:56:58;;;;;;;14.13;11.63;;;;;;;13.13;75.03;102354.16;4992727;28;20042;-80
2023/04/30 08:59:24;;;;;;;17.33;12.27;;;;;;;12.86;74.38;102318.28;4975327;28;20393;-84
2023/04/30 09:01:49;;;;;;;16.38;12.80;;;;;;;13.19;78.90;102335.75;4992893;28;20030;-85
2023/04/30 09:04:15;;;;;;;15.40;11.65;;;;;;;13.01;73.52;102303.75;4993074;28;20062;-82
2023/04/30 09:06:41;;;;;;;15.18;12.48;;;;;;;13.34;74.83;102347.94;4992720;28;20053;-80
2023/04/30 09:09:11;;;;;;;16.40;11.80;;;;;;;13.24;73.53;102328.56;4993292;28;20058;-87
2023/04/30 09:11:37;;;;;;;14.15;11.23;;;;;;;13.29;73.39;102347.34;4993652;28;20377;-86
2023/04/30 09:14:02;;;;;;;14.77;11.43;;;;;;;13.40;75.13;102345.03;4976190;28;20030;-88
2023/04/30 09:16:31;;;;;;;13.52;10.48;;;;;;;13.31;71.32;102326.50;4993460;28;20026;-89
2023/04/30 09:18:57;;;;;;;13.45;11.02;;;;;;;13.41;70.60;102344.13;4974957;28;20497;-83
2023/04/30 09:21:33;;;;;;;13.13;10.35;;;;;;;13.52;73.70;102347.94;4995445;28;20066;-87
2023/04/30 09:24:04;;;;;;;15.88;11.13;;;;;;;13.42;71.95;102335.41;4993647;23;20484;-86
2023/04/30 09:26:35;;;;;;;16.03;12.70;;;;;;;13.41;72.04;102351.91;5012165;28;20092;-86
2023/04/30 09:29:14;;;;;;;16.05;12.25;;;;;;;13.31;72.32;102318.72;5011879;28;20617;-86
2023/04/30 09:31:45;;;;;;;13.65;11.60;;;;;;;13.47;70.53;102346.41;5011674;28;20038;-87
2023/04/30 09:34:11;;;;;;;;;;;;;;;13.60;72.11;102343.19;5012483;28;20374;-83
2023/04/30 09:36:36;;;;;;;14.30;11.30;;;;;;;13.61;71.38;102337.06;5015669;28;19914;-81
2023/04/30 09:39:16;;;;;;;15.93;11.70;;;;;;;13.46;69.90;102318.75;5015549;28;20504;-87
2023/04/30 09:41:42;;;;;;;15.63;12.27;;;;;;;13.29;72.13;102264.31;5014946;28;20033;-85
2023/04/30 09:44:26;;;;;;;11.68;9.90;;;;;;;13.84;71.47;102341.06;5015185;28;20084;-82
2023/04/30 09:46:51;;;;;;;11.70;9.02;;;;;;;13.83;68.62;102331.59;5014850;28;20541;-84
2023/04/30 09:49:18;;;;;;;13.68;9.38;;;;;;;13.84;69.73;102334.09;5015238;28;20112;-86
2023/04/30 09:52:00;;;;;;;10.68;8.70;;;;;;;13.70;69.34;102290.72;5014774;28;20026;-86
2023/04/30 09:54:29;;;;;;;10.77;8.13;;;;;;;14.05;67.76;102327.78;5015398;28;20034;-87
2023/04/30 09:57:01;;;;;;;9.27;7.85;;;;;;;14.20;71.06;102323.53;5014975;28;20026;-88
2023/04/30 09:59:38;;;;;;;10.35;8.13;;;;;;;14.18;67.29;102324.53;5014817;28;20044;-85
2023/04/30 10:02:04;;;;;;;10.73;8.63;;;;;;;14.11;69.47;102297.22;5014795;28;20022;-86
2023/04/30 10:04:42;;;;;;;11.48;8.43;;;;;;;14.18;67.95;102311.53;4997322;28;20485;-87
2023/04/30 10:07:12;;;;;;;11.93;9.10;;;;;;;14.14;69.05;102289.22;5014824;28;20539;-82
2023/04/30 10:09:49;;;;;;;11.30;7.45;;;;;;;14.28;67.78;102299.72;5015157;28;20377;-86
2023/04/30 10:12:21;;;;;;;10.50;7.80;;;;;;;14.41;66.07;102315.47;5014628;28;20053;-87
2023/04/30 10:14:54;;;;;;;9.85;7.65;;;;;;;13.69;65.20;102200.78;5015105;28;20072;-89
2023/04/30 10:17:25;;;;;;;10.45;7.55;;;;;;;13.99;65.23;102246.78;5014585;28;20022;-86
2023/04/30 10:19:54;;;;;;;10.43;7.57;;;;;;;14.16;65.74;102266.59;5014886;28;20107;-86
2023/04/30 10:22:20;;;;;;;11.02;8.15;;;;;;;14.34;66.22;102304.56;5014334;28;20022;-85
2023/04/30 10:24:47;;;;;;;10.23;8.43;;;;;;;14.34;67.21;102287.22;5013891;28;20046;-86
2023/04/30 10:27:13;;;;;;;11.07;7.93;;;;;;;14.56;67.69;102310.31;5014497;28;20461;-86
2023/04/30 10:29:38;;;;;;;11.45;7.90;;;;;;;14.68;67.94;102298.38;5014167;28;20033;-85
2023/04/30 10:32:05;;;;;;;10.02;6.93;;;;;;;14.63;64.98;102257.00;5014720;28;20381;-85
2023/04/30 10:34:58;;;;;;;10.50;8.13;;;;;;;15.01;65.86;102308.59;5014584;28;20553;-85
2023/04/30 10:37:33;;;;;;;12.70;7.95;;;;;;;15.02;63.91;102294.66;5017122;28;20390;-82
2023/04/30 10:39:58;;;;;;;8.95;7.45;;;;;;;14.86;63.59;102267.88;5014716;28;20437;-85
2023/04/30 10:42:24;;;;;;;9.18;6.82;;;;;;;14.83;65.75;102242.84;5014306;28;20065;-83
2023/04/30 10:44:49;;;;;;;10.55;8.20;;;;;;;14.95;63.51;102266.50;5014005;28;20029;-87
2023/04/30 10:47:15;;;;;;;10.82;7.80;;;;;;;14.87;62.55;102261.75;5014000;28;20022;-86
2023/04/30 10:50:01;;;;;;;8.90;6.55;;;;;;;14.71;62.61;102233.19;5014153;28;20060;-87
2023/04/30 10:52:28;;;;;;;8.80;6.00;;;;;;;14.89;61.31;102245.09;5013836;28;20033;-86
2023/04/30 10:54:53;;;;;;;8.13;5.95;;;;;;;15.31;63.32;102277.31;5014209;28;20018;-87
2023/04/30 10:57:28;;;;;;;8.40;6.50;;;;;;;15.19;62.02;102229.44;5013990;28;20034;-86
2023/04/30 10:59:56;;;;;;;7.45;5.63;;;;;;;15.57;61.62;102262.75;5013989;28;20417;-86
2023/04/30 11:02:23;;;;;;;7.15;5.60;;;;;;;15.54;62.28;102233.47;5014008;28;20386;-86
2023/04/30 11:05:06;;;;;;;9.65;6.25;;;;;;;15.86;61.64;102270.56;5013698;28;20105;-86
2023/04/30 11:07:32;;;;;;;7.60;5.72;;;;;;;15.67;59.82;102226.59;5013716;28;20030;-88
2023/04/30 11:09:59;;;;;;;7.70;6.07;;;;;;;15.66;60.87;102236.16;5013212;28;20366;-87
2023/04/30 11:12:29;;;;;;;8.75;6.60;;;;;;;15.58;58.13;102259.19;5013840;28;20057;-86
2023/04/30 11:15:00;;;;;;;9.25;6.88;;;;;;;15.46;58.54;102252.97;5013940;28;20030;-86
2023/04/30 11:17:27;;;;;;;7.90;6.43;;;;;;;15.44;60.02;102251.41;4996136;28;20477;-85
2023/04/30 11:19:53;;;;;;;10.10;6.85;;;;;;;15.13;61.63;102195.97;5013581;28;20076;-84
2023/04/30 11:22:23;;;;;;;9.40;6.40;;;;;;;15.39;61.31;102220.44;5013657;28;20021;-85
2023/04/30 11:24:50;;;;;;;9.25;6.45;;;;;;;15.09;59.79;102146.84;5013544;28;20457;-82
2023/04/30 11:27:22;;;;;;;8.57;6.38;;;;;;;15.69;59.94;102235.13;5013831;28;20369;-81
2023/04/30 11:29:48;;;;;;;6.90;5.15;;;;;;;15.89;60.89;102231.28;5013570;28;20030;-82
2023/04/30 11:32:14;;;;;;;7.85;5.15;;;;;;;15.67;57.74;102187.53;5013697;28;20023;-82